sensor_id;sensor_type;location;lat;lon;timestamp;P1;durP1;ratioP1;P2;durP2;ratioP2
51124;SDS011;37163;55.556;39.108;2022-11-27T00:02:15;6.07;;;3.47;;
51124;SDS011;37163;55.556;39.108;2022-11-27T00:04:41;8.15;;;3.70;;
51124;SDS011;37163;55.556;39.108;2022-11-27T00:07:08;6.90;;;3.42;;
51124;SDS011;37163;55.556;39.108;2022-11-27T00:09:34;8.43;;;3.42;;
51124;SDS011;37163;55.556;39.108;2022-11-27T00:12:00;6.57;;;3.38;;
51124;SDS011;37163;55.556;39.108;2022-11-27T00:14:27;8.63;;;4.25;;
51124;SDS011;37163;55.556;39.108;2022-11-27T00:16:53;5.70;;;3.28;;
51124;SDS011;37163;55.556;39.108;2022-11-27T00:19:20;8.13;;;3.92;;
51124;SDS011;37163;55.556;39.108;2022-11-27T00:21:47;5.47;;;3.20;;
51124;SDS011;37163;55.556;39.108;2022-11-27T00:24:13;8.55;;;3.72;;
51124;SDS011;37163;55.556;39.108;2022-11-27T00:26:39;6.07;;;3.10;;
51124;SDS011;37163;55.556;39.108;2022-11-27T00:29:06;5.30;;;3.03;;
51124;SDS011;37163;55.556;39.108;2022-11-27T00:31:33;5.68;;;3.08;;
51124;SDS011;37163;55.556;39.108;2022-11-27T00:34:02;6.22;;;3.70;;
51124;SDS011;37163;55.556;39.108;2022-11-27T00:36:30;5.75;;;2.67;;
51124;SDS011;37163;55.556;39.108;2022-11-27T00:38:58;7.05;;;3.90;;
51124;SDS011;37163;55.556;39.108;2022-11-27T00:41:26;6.78;;;3.33;;
51124;SDS011;37163;55.556;39.108;2022-11-27T00:43:53;8.93;;;4.50;;
51124;SDS011;37163;55.556;39.108;2022-11-27T00:46:22;5.80;;;3.22;;
51124;SDS011;37163;55.556;39.108;2022-11-27T00:48:51;8.48;;;3.45;;
51124;SDS011;37163;55.556;39.108;2022-11-27T00:51:18;6.95;;;3.28;;
51124;SDS011;37163;55.556;39.108;2022-11-27T00:53:46;9.68;;;3.75;;
51124;SDS011;37163;55.556;39.108;2022-11-27T00:56:14;5.90;;;2.90;;
51124;SDS011;37163;55.556;39.108;2022-11-27T00:58:43;6.93;;;3.13;;
51124;SDS011;37163;55.556;39.108;2022-11-27T01:01:14;5.95;;;2.70;;
51124;SDS011;37163;55.556;39.108;2022-11-27T01:03:44;5.80;;;2.95;;
51124;SDS011;37163;55.556;39.108;2022-11-27T01:06:10;5.47;;;3.28;;
51124;SDS011;37163;55.556;39.108;2022-11-27T01:08:37;6.82;;;3.08;;
51124;SDS011;37163;55.556;39.108;2022-11-27T01:11:03;8.65;;;3.65;;
51124;SDS011;37163;55.556;39.108;2022-11-27T01:13:31;8.55;;;3.35;;
51124;SDS011;37163;55.556;39.108;2022-11-27T01:16:03;6.28;;;2.88;;
51124;SDS011;37163;55.556;39.108;2022-11-27T01:18:32;5.45;;;3.03;;
51124;SDS011;37163;55.556;39.108;2022-11-27T01:20:59;9.80;;;4.28;;
51124;SDS011;37163;55.556;39.108;2022-11-27T01:23:26;6.10;;;3.33;;
51124;SDS011;37163;55.556;39.108;2022-11-27T01:25:53;8.80;;;4.82;;
51124;SDS011;37163;55.556;39.108;2022-11-27T01:28:20;6.50;;;4.50;;
51124;SDS011;37163;55.556;39.108;2022-11-27T01:30:48;7.50;;;3.53;;
51124;SDS011;37163;55.556;39.108;2022-11-27T01:33:15;6.57;;;3.58;;
51124;SDS011;37163;55.556;39.108;2022-11-27T01:35:42;6.47;;;3.53;;
51124;SDS011;37163;55.556;39.108;2022-11-27T01:40:43;8.30;;;2.75;;
51124;SDS011;37163;55.556;39.108;2022-11-27T01:43:12;6.72;;;3.95;;
51124;SDS011;37163;55.556;39.108;2022-11-27T01:45:40;5.47;;;3.03;;
51124;SDS011;37163;55.556;39.108;2022-11-27T01:48:08;6.40;;;3.63;;
51124;SDS011;37163;55.556;39.108;2022-11-27T01:50:36;6.97;;;3.20;;
51124;SDS011;37163;55.556;39.108;2022-11-27T01:53:10;6.13;;;3.97;;
51124;SDS011;37163;55.556;39.108;2022-11-27T01:55:46;7.78;;;3.03;;
51124;SDS011;37163;55.556;39.108;2022-11-27T01:58:19;6.55;;;3.47;;
51124;SDS011;37163;55.556;39.108;2022-11-27T02:00:48;8.82;;;4.60;;
51124;SDS011;37163;55.556;39.108;2022-11-27T02:03:15;7.80;;;3.70;;
51124;SDS011;37163;55.556;39.108;2022-11-27T02:05:41;7.60;;;3.70;;
51124;SDS011;37163;55.556;39.108;2022-11-27T02:08:09;7.55;;;3.45;;
51124;SDS011;37163;55.556;39.108;2022-11-27T02:13:32;8.85;;;3.50;;
51124;SDS011;37163;55.556;39.108;2022-11-27T02:18:56;8.10;;;3.25;;
51124;SDS011;37163;55.556;39.108;2022-11-27T02:21:34;8.45;;;4.63;;
51124;SDS011;37163;55.556;39.108;2022-11-27T02:24:18;6.43;;;3.05;;
51124;SDS011;37163;55.556;39.108;2022-11-27T02:30:06;5.60;;;2.55;;
51124;SDS011;37163;55.556;39.108;2022-11-27T02:37:52;6.32;;;3.25;;
51124;SDS011;37163;55.556;39.108;2022-11-27T02:40:28;9.63;;;3.53;;
51124;SDS011;37163;55.556;39.108;2022-11-27T02:43:14;8.38;;;3.20;;
51124;SDS011;37163;55.556;39.108;2022-11-27T02:45:46;5.93;;;3.35;;
51124;SDS011;37163;55.556;39.108;2022-11-27T02:48:15;5.70;;;3.55;;
51124;SDS011;37163;55.556;39.108;2022-11-27T02:50:44;7.20;;;3.33;;
51124;SDS011;37163;55.556;39.108;2022-11-27T02:53:13;7.90;;;3.65;;
51124;SDS011;37163;55.556;39.108;2022-11-27T02:55:43;6.15;;;3.17;;
51124;SDS011;37163;55.556;39.108;2022-11-27T02:58:13;6.82;;;3.25;;
51124;SDS011;37163;55.556;39.108;2022-11-27T03:00:44;5.70;;;2.88;;
51124;SDS011;37163;55.556;39.108;2022-11-27T03:03:12;10.07;;;3.30;;
51124;SDS011;37163;55.556;39.108;2022-11-27T03:05:41;7.35;;;3.40;;
51124;SDS011;37163;55.556;39.108;2022-11-27T03:08:25;7.85;;;3.70;;
51124;SDS011;37163;55.556;39.108;2022-11-27T03:11:08;7.18;;;3.85;;
51124;SDS011;37163;55.556;39.108;2022-11-27T03:13:43;6.25;;;3.20;;
51124;SDS011;37163;55.556;39.108;2022-11-27T03:21:47;6.70;;;3.50;;
51124;SDS011;37163;55.556;39.108;2022-11-27T03:24:21;5.90;;;3.85;;
51124;SDS011;37163;55.556;39.108;2022-11-27T03:26:49;6.93;;;3.60;;
51124;SDS011;37163;55.556;39.108;2022-11-27T03:29:20;6.50;;;3.20;;
51124;SDS011;37163;55.556;39.108;2022-11-27T03:31:50;5.78;;;3.20;;
51124;SDS011;37163;55.556;39.108;2022-11-27T03:34:17;11.68;;;3.85;;
51124;SDS011;37163;55.556;39.108;2022-11-27T03:36:44;6.90;;;3.47;;
51124;SDS011;37163;55.556;39.108;2022-11-27T03:39:10;6.40;;;2.80;;
51124;SDS011;37163;55.556;39.108;2022-11-27T03:52:23;8.63;;;3.63;;
51124;SDS011;37163;55.556;39.108;2022-11-27T03:55:02;9.27;;;3.45;;
51124;SDS011;37163;55.556;39.108;2022-11-27T04:00:20;7.50;;;3.47;;
51124;SDS011;37163;55.556;39.108;2022-11-27T04:02:49;5.15;;;3.00;;
51124;SDS011;37163;55.556;39.108;2022-11-27T04:05:16;5.85;;;3.03;;
51124;SDS011;37163;55.556;39.108;2022-11-27T04:07:43;5.90;;;3.10;;
51124;SDS011;37163;55.556;39.108;2022-11-27T04:10:10;8.52;;;3.33;;
51124;SDS011;37163;55.556;39.108;2022-11-27T04:12:38;4.57;;;2.88;;
51124;SDS011;37163;55.556;39.108;2022-11-27T04:15:05;4.72;;;2.67;;
51124;SDS011;37163;55.556;39.108;2022-11-27T04:17:31;6.18;;;2.90;;
51124;SDS011;37163;55.556;39.108;2022-11-27T04:19:58;7.50;;;3.03;;
51124;SDS011;37163;55.556;39.108;2022-11-27T04:22:24;5.55;;;3.40;;
51124;SDS011;37163;55.556;39.108;2022-11-27T04:24:51;5.88;;;3.90;;
51124;SDS011;37163;55.556;39.108;2022-11-27T04:27:17;8.95;;;3.42;;
51124;SDS011;37163;55.556;39.108;2022-11-27T04:29:44;6.55;;;3.20;;
51124;SDS011;37163;55.556;39.108;2022-11-27T04:32:10;8.27;;;2.97;;
51124;SDS011;37163;55.556;39.108;2022-11-27T04:34:36;5.22;;;2.72;;
51124;SDS011;37163;55.556;39.108;2022-11-27T04:37:03;7.00;;;3.28;;
51124;SDS011;37163;55.556;39.108;2022-11-27T04:39:48;5.70;;;2.95;;
51124;SDS011;37163;55.556;39.108;2022-11-27T04:42:14;9.73;;;4.47;;
51124;SDS011;37163;55.556;39.108;2022-11-27T04:44:41;7.82;;;3.08;;
51124;SDS011;37163;55.556;39.108;2022-11-27T04:47:07;6.20;;;2.92;;
51124;SDS011;37163;55.556;39.108;2022-11-27T04:49:34;5.13;;;3.05;;
51124;SDS011;37163;55.556;39.108;2022-11-27T04:52:01;9.07;;;3.58;;
51124;SDS011;37163;55.556;39.108;2022-11-27T04:54:27;8.00;;;3.10;;
51124;SDS011;37163;55.556;39.108;2022-11-27T04:56:54;8.10;;;3.22;;
51124;SDS011;37163;55.556;39.108;2022-11-27T04:59:20;6.70;;;3.17;;
51124;SDS011;37163;55.556;39.108;2022-11-27T05:01:47;5.78;;;3.03;;
51124;SDS011;37163;55.556;39.108;2022-11-27T05:04:13;6.72;;;3.60;;
51124;SDS011;37163;55.556;39.108;2022-11-27T05:06:40;9.15;;;4.60;;
51124;SDS011;37163;55.556;39.108;2022-11-27T05:09:06;4.90;;;3.28;;
51124;SDS011;37163;55.556;39.108;2022-11-27T05:11:33;6.85;;;3.90;;
51124;SDS011;37163;55.556;39.108;2022-11-27T05:13:59;7.00;;;3.58;;
51124;SDS011;37163;55.556;39.108;2022-11-27T05:16:42;6.63;;;3.05;;
51124;SDS011;37163;55.556;39.108;2022-11-27T05:19:10;5.75;;;2.80;;
51124;SDS011;37163;55.556;39.108;2022-11-27T05:21:37;3.75;;;2.38;;
51124;SDS011;37163;55.556;39.108;2022-11-27T05:24:03;8.90;;;2.85;;
51124;SDS011;37163;55.556;39.108;2022-11-27T05:26:30;7.93;;;3.88;;
51124;SDS011;37163;55.556;39.108;2022-11-27T05:28:57;6.80;;;3.63;;
51124;SDS011;37163;55.556;39.108;2022-11-27T05:31:23;6.38;;;3.00;;
51124;SDS011;37163;55.556;39.108;2022-11-27T05:33:50;7.10;;;2.90;;
51124;SDS011;37163;55.556;39.108;2022-11-27T05:36:16;6.57;;;3.10;;
51124;SDS011;37163;55.556;39.108;2022-11-27T05:38:42;5.25;;;3.65;;
51124;SDS011;37163;55.556;39.108;2022-11-27T05:41:09;8.38;;;4.38;;
51124;SDS011;37163;55.556;39.108;2022-11-27T05:43:35;6.38;;;3.88;;
51124;SDS011;37163;55.556;39.108;2022-11-27T05:46:05;6.15;;;3.95;;
51124;SDS011;37163;55.556;39.108;2022-11-27T05:48:33;7.95;;;3.72;;
51124;SDS011;37163;55.556;39.108;2022-11-27T05:51:00;9.57;;;3.72;;
51124;SDS011;37163;55.556;39.108;2022-11-27T05:53:28;6.43;;;3.20;;
51124;SDS011;37163;55.556;39.108;2022-11-27T05:55:59;7.75;;;3.70;;
51124;SDS011;37163;55.556;39.108;2022-11-27T05:58:30;8.55;;;3.70;;
51124;SDS011;37163;55.556;39.108;2022-11-27T06:00:57;6.20;;;3.00;;
51124;SDS011;37163;55.556;39.108;2022-11-27T06:03:23;8.32;;;3.72;;
51124;SDS011;37163;55.556;39.108;2022-11-27T06:05:50;8.75;;;3.47;;
51124;SDS011;37163;55.556;39.108;2022-11-27T06:08:17;5.90;;;3.97;;
51124;SDS011;37163;55.556;39.108;2022-11-27T06:10:44;5.28;;;2.85;;
51124;SDS011;37163;55.556;39.108;2022-11-27T06:13:12;5.93;;;3.35;;
51124;SDS011;37163;55.556;39.108;2022-11-27T06:15:38;8.95;;;4.43;;
51124;SDS011;37163;55.556;39.108;2022-11-27T06:18:05;6.57;;;3.97;;
51124;SDS011;37163;55.556;39.108;2022-11-27T06:20:32;7.45;;;3.92;;
51124;SDS011;37163;55.556;39.108;2022-11-27T06:22:58;6.70;;;3.60;;
51124;SDS011;37163;55.556;39.108;2022-11-27T06:25:24;9.32;;;3.33;;
51124;SDS011;37163;55.556;39.108;2022-11-27T06:27:51;8.13;;;3.53;;
51124;SDS011;37163;55.556;39.108;2022-11-27T06:30:17;6.15;;;3.35;;
51124;SDS011;37163;55.556;39.108;2022-11-27T06:32:44;6.72;;;3.67;;
51124;SDS011;37163;55.556;39.108;2022-11-27T06:35:10;5.47;;;3.15;;
51124;SDS011;37163;55.556;39.108;2022-11-27T06:37:37;6.55;;;4.03;;
51124;SDS011;37163;55.556;39.108;2022-11-27T06:40:03;5.55;;;3.08;;
51124;SDS011;37163;55.556;39.108;2022-11-27T06:42:30;5.90;;;3.47;;
51124;SDS011;37163;55.556;39.108;2022-11-27T06:44:57;8.27;;;3.60;;
51124;SDS011;37163;55.556;39.108;2022-11-27T06:47:23;5.55;;;3.47;;
51124;SDS011;37163;55.556;39.108;2022-11-27T06:49:50;5.90;;;3.60;;
51124;SDS011;37163;55.556;39.108;2022-11-27T06:52:16;6.05;;;3.15;;
51124;SDS011;37163;55.556;39.108;2022-11-27T06:54:43;5.45;;;3.20;;
51124;SDS011;37163;55.556;39.108;2022-11-27T06:57:09;7.05;;;3.33;;
51124;SDS011;37163;55.556;39.108;2022-11-27T06:59:36;6.35;;;3.20;;
51124;SDS011;37163;55.556;39.108;2022-11-27T07:02:02;6.03;;;3.33;;
51124;SDS011;37163;55.556;39.108;2022-11-27T07:04:28;7.32;;;3.67;;
51124;SDS011;37163;55.556;39.108;2022-11-27T07:06:55;7.38;;;3.28;;
51124;SDS011;37163;55.556;39.108;2022-11-27T07:09:21;6.88;;;3.80;;
51124;SDS011;37163;55.556;39.108;2022-11-27T07:11:47;6.38;;;3.50;;
51124;SDS011;37163;55.556;39.108;2022-11-27T07:14:14;7.25;;;4.13;;
51124;SDS011;37163;55.556;39.108;2022-11-27T07:16:40;5.57;;;3.20;;
51124;SDS011;37163;55.556;39.108;2022-11-27T07:19:07;6.97;;;3.28;;
51124;SDS011;37163;55.556;39.108;2022-11-27T07:21:35;7.00;;;3.50;;
51124;SDS011;37163;55.556;39.108;2022-11-27T07:24:02;7.60;;;3.60;;
51124;SDS011;37163;55.556;39.108;2022-11-27T07:26:29;8.60;;;3.50;;
51124;SDS011;37163;55.556;39.108;2022-11-27T07:28:55;5.90;;;2.92;;
51124;SDS011;37163;55.556;39.108;2022-11-27T07:31:23;7.38;;;3.88;;
51124;SDS011;37163;55.556;39.108;2022-11-27T07:33:55;6.22;;;3.47;;
51124;SDS011;37163;55.556;39.108;2022-11-27T07:36:23;6.63;;;3.85;;
51124;SDS011;37163;55.556;39.108;2022-11-27T07:38:50;6.35;;;3.63;;
51124;SDS011;37163;55.556;39.108;2022-11-27T07:41:17;8.23;;;3.40;;
51124;SDS011;37163;55.556;39.108;2022-11-27T07:43:44;10.25;;;5.22;;
51124;SDS011;37163;55.556;39.108;2022-11-27T07:46:12;7.63;;;3.75;;
51124;SDS011;37163;55.556;39.108;2022-11-27T07:48:42;8.43;;;4.13;;
51124;SDS011;37163;55.556;39.108;2022-11-27T07:51:10;6.57;;;4.05;;
51124;SDS011;37163;55.556;39.108;2022-11-27T07:53:39;6.55;;;4.07;;
51124;SDS011;37163;55.556;39.108;2022-11-27T07:56:07;6.85;;;3.80;;
51124;SDS011;37163;55.556;39.108;2022-11-27T07:58:35;8.93;;;4.50;;
51124;SDS011;37163;55.556;39.108;2022-11-27T08:01:04;7.68;;;3.95;;
51124;SDS011;37163;55.556;39.108;2022-11-27T08:03:32;6.05;;;3.72;;
51124;SDS011;37163;55.556;39.108;2022-11-27T08:05:58;10.30;;;5.22;;
51124;SDS011;37163;55.556;39.108;2022-11-27T08:08:25;8.88;;;4.50;;
51124;SDS011;37163;55.556;39.108;2022-11-27T08:10:51;5.78;;;4.03;;
51124;SDS011;37163;55.556;39.108;2022-11-27T08:13:36;8.07;;;4.72;;
51124;SDS011;37163;55.556;39.108;2022-11-27T08:16:03;8.80;;;6.40;;
51124;SDS011;37163;55.556;39.108;2022-11-27T08:18:30;7.65;;;4.68;;
51124;SDS011;37163;55.556;39.108;2022-11-27T08:20:58;8.13;;;4.93;;
51124;SDS011;37163;55.556;39.108;2022-11-27T08:23:25;8.23;;;4.90;;
51124;SDS011;37163;55.556;39.108;2022-11-27T08:25:51;7.13;;;4.32;;
51124;SDS011;37163;55.556;39.108;2022-11-27T08:28:17;11.52;;;5.35;;
51124;SDS011;37163;55.556;39.108;2022-11-27T08:30:44;7.03;;;4.30;;
51124;SDS011;37163;55.556;39.108;2022-11-27T08:33:14;8.80;;;4.28;;
51124;SDS011;37163;55.556;39.108;2022-11-27T08:35:45;5.97;;;4.20;;
51124;SDS011;37163;55.556;39.108;2022-11-27T08:38:13;6.43;;;4.07;;
51124;SDS011;37163;55.556;39.108;2022-11-27T08:40:40;7.43;;;4.20;;
51124;SDS011;37163;55.556;39.108;2022-11-27T08:43:06;8.32;;;4.97;;
51124;SDS011;37163;55.556;39.108;2022-11-27T08:45:33;7.65;;;4.60;;
51124;SDS011;37163;55.556;39.108;2022-11-27T08:47:59;7.20;;;4.30;;
51124;SDS011;37163;55.556;39.108;2022-11-27T08:50:26;8.40;;;5.20;;
51124;SDS011;37163;55.556;39.108;2022-11-27T08:52:52;8.93;;;4.53;;
51124;SDS011;37163;55.556;39.108;2022-11-27T08:55:19;8.27;;;4.50;;
51124;SDS011;37163;55.556;39.108;2022-11-27T08:57:45;8.57;;;4.15;;
51124;SDS011;37163;55.556;39.108;2022-11-27T09:00:12;8.00;;;4.45;;
51124;SDS011;37163;55.556;39.108;2022-11-27T09:02:39;10.07;;;5.10;;
51124;SDS011;37163;55.556;39.108;2022-11-27T09:05:05;8.02;;;4.78;;
51124;SDS011;37163;55.556;39.108;2022-11-27T09:07:32;8.40;;;3.97;;
51124;SDS011;37163;55.556;39.108;2022-11-27T09:09:59;9.93;;;4.50;;
51124;SDS011;37163;55.556;39.108;2022-11-27T09:12:25;8.55;;;4.32;;
51124;SDS011;37163;55.556;39.108;2022-11-27T09:14:53;6.85;;;4.70;;
51124;SDS011;37163;55.556;39.108;2022-11-27T09:17:21;10.00;;;4.88;;
51124;SDS011;37163;55.556;39.108;2022-11-27T09:19:48;8.57;;;4.38;;
51124;SDS011;37163;55.556;39.108;2022-11-27T09:22:14;7.15;;;3.92;;
51124;SDS011;37163;55.556;39.108;2022-11-27T09:24:41;8.52;;;4.88;;
51124;SDS011;37163;55.556;39.108;2022-11-27T09:27:07;7.82;;;4.05;;
51124;SDS011;37163;55.556;39.108;2022-11-27T09:29:33;8.38;;;5.10;;
51124;SDS011;37163;55.556;39.108;2022-11-27T09:32:00;7.40;;;4.55;;
51124;SDS011;37163;55.556;39.108;2022-11-27T09:34:26;8.27;;;5.07;;
51124;SDS011;37163;55.556;39.108;2022-11-27T09:36:53;7.28;;;4.30;;
51124;SDS011;37163;55.556;39.108;2022-11-27T09:39:19;7.18;;;4.57;;
51124;SDS011;37163;55.556;39.108;2022-11-27T09:44:32;6.38;;;4.05;;
51124;SDS011;37163;55.556;39.108;2022-11-27T09:47:04;8.57;;;3.88;;
51124;SDS011;37163;55.556;39.108;2022-11-27T09:49:40;9.05;;;5.00;;
51124;SDS011;37163;55.556;39.108;2022-11-27T09:55:13;8.13;;;5.20;;
51124;SDS011;37163;55.556;39.108;2022-11-27T09:57:52;8.02;;;5.05;;
51124;SDS011;37163;55.556;39.108;2022-11-27T10:00:21;8.98;;;5.13;;
51124;SDS011;37163;55.556;39.108;2022-11-27T10:02:48;8.68;;;5.32;;
51124;SDS011;37163;55.556;39.108;2022-11-27T10:05:20;11.43;;;5.65;;
51124;SDS011;37163;55.556;39.108;2022-11-27T10:08:02;8.00;;;5.07;;
51124;SDS011;37163;55.556;39.108;2022-11-27T10:10:55;7.57;;;4.78;;
51124;SDS011;37163;55.556;39.108;2022-11-27T10:13:54;10.68;;;5.38;;
51124;SDS011;37163;55.556;39.108;2022-11-27T10:16:32;8.27;;;5.72;;
51124;SDS011;37163;55.556;39.108;2022-11-27T10:21:48;9.88;;;5.18;;
51124;SDS011;37163;55.556;39.108;2022-11-27T10:24:32;9.82;;;5.07;;
51124;SDS011;37163;55.556;39.108;2022-11-27T10:27:21;9.18;;;6.07;;
51124;SDS011;37163;55.556;39.108;2022-11-27T10:29:53;9.18;;;5.85;;
51124;SDS011;37163;55.556;39.108;2022-11-27T10:32:22;10.90;;;5.82;;
51124;SDS011;37163;55.556;39.108;2022-11-27T10:35:03;8.02;;;5.20;;
51124;SDS011;37163;55.556;39.108;2022-11-27T10:37:42;8.43;;;5.53;;
51124;SDS011;37163;55.556;39.108;2022-11-27T10:42:44;10.52;;;6.30;;
51124;SDS011;37163;55.556;39.108;2022-11-27T10:45:18;9.75;;;5.53;;
51124;SDS011;37163;55.556;39.108;2022-11-27T10:47:46;9.32;;;5.22;;
51124;SDS011;37163;55.556;39.108;2022-11-27T10:50:14;9.27;;;5.65;;
51124;SDS011;37163;55.556;39.108;2022-11-27T10:52:52;12.27;;;6.22;;
51124;SDS011;37163;55.556;39.108;2022-11-27T10:55:49;9.85;;;5.28;;
51124;SDS011;37163;55.556;39.108;2022-11-27T11:01:18;10.45;;;6.05;;
51124;SDS011;37163;55.556;39.108;2022-11-27T11:03:46;12.45;;;6.82;;
51124;SDS011;37163;55.556;39.108;2022-11-27T11:08:58;10.55;;;5.90;;
51124;SDS011;37163;55.556;39.108;2022-11-27T11:11:26;11.00;;;6.00;;
51124;SDS011;37163;55.556;39.108;2022-11-27T11:13:53;9.63;;;6.22;;
51124;SDS011;37163;55.556;39.108;2022-11-27T11:16:21;8.95;;;5.63;;
51124;SDS011;37163;55.556;39.108;2022-11-27T11:18:50;10.07;;;7.18;;
51124;SDS011;37163;55.556;39.108;2022-11-27T11:21:22;10.30;;;6.53;;
51124;SDS011;37163;55.556;39.108;2022-11-27T11:24:00;12.85;;;7.30;;
51124;SDS011;37163;55.556;39.108;2022-11-27T11:26:33;9.93;;;5.63;;
51124;SDS011;37163;55.556;39.108;2022-11-27T11:29:02;12.07;;;7.65;;
51124;SDS011;37163;55.556;39.108;2022-11-27T11:31:32;10.77;;;5.75;;
51124;SDS011;37163;55.556;39.108;2022-11-27T11:34:02;11.88;;;6.45;;
51124;SDS011;37163;55.556;39.108;2022-11-27T11:36:32;11.15;;;6.32;;
51124;SDS011;37163;55.556;39.108;2022-11-27T11:38:59;10.52;;;5.95;;
51124;SDS011;37163;55.556;39.108;2022-11-27T11:41:34;11.00;;;6.85;;
51124;SDS011;37163;55.556;39.108;2022-11-27T11:44:04;8.70;;;5.72;;
51124;SDS011;37163;55.556;39.108;2022-11-27T11:46:31;9.65;;;6.57;;
51124;SDS011;37163;55.556;39.108;2022-11-27T11:49:04;9.45;;;6.15;;
51124;SDS011;37163;55.556;39.108;2022-11-27T11:54:06;10.13;;;5.97;;
51124;SDS011;37163;55.556;39.108;2022-11-27T11:56:42;12.10;;;6.32;;
51124;SDS011;37163;55.556;39.108;2022-11-27T11:59:57;8.95;;;6.38;;
51124;SDS011;37163;55.556;39.108;2022-11-27T12:05:02;10.23;;;5.75;;
51124;SDS011;37163;55.556;39.108;2022-11-27T12:10:47;12.13;;;6.63;;
51124;SDS011;37163;55.556;39.108;2022-11-27T12:13:27;11.13;;;6.32;;
51124;SDS011;37163;55.556;39.108;2022-11-27T12:16:12;10.80;;;5.75;;
51124;SDS011;37163;55.556;39.108;2022-11-27T12:19:02;10.93;;;5.85;;
51124;SDS011;37163;55.556;39.108;2022-11-27T12:27:44;11.35;;;6.47;;
51124;SDS011;37163;55.556;39.108;2022-11-27T12:36:16;9.13;;;5.43;;
51124;SDS011;37163;55.556;39.108;2022-11-27T12:44:02;11.02;;;7.10;;
51124;SDS011;37163;55.556;39.108;2022-11-27T12:47:06;8.88;;;6.53;;
51124;SDS011;37163;55.556;39.108;2022-11-27T12:49:57;14.07;;;8.57;;
51124;SDS011;37163;55.556;39.108;2022-11-27T12:52:33;13.43;;;8.52;;
51124;SDS011;37163;55.556;39.108;2022-11-27T12:55:16;17.17;;;10.48;;
51124;SDS011;37163;55.556;39.108;2022-11-27T12:57:50;12.98;;;7.80;;
51124;SDS011;37163;55.556;39.108;2022-11-27T13:00:20;19.88;;;11.05;;
51124;SDS011;37163;55.556;39.108;2022-11-27T13:02:59;13.43;;;8.55;;
51124;SDS011;37163;55.556;39.108;2022-11-27T13:05:31;11.65;;;7.78;;
51124;SDS011;37163;55.556;39.108;2022-11-27T13:08:10;10.27;;;6.95;;
51124;SDS011;37163;55.556;39.108;2022-11-27T13:13:46;13.07;;;7.18;;
51124;SDS011;37163;55.556;39.108;2022-11-27T13:16:21;9.30;;;5.35;;
51124;SDS011;37163;55.556;39.108;2022-11-27T13:18:53;8.05;;;5.05;;
51124;SDS011;37163;55.556;39.108;2022-11-27T13:21:24;11.63;;;6.97;;
51124;SDS011;37163;55.556;39.108;2022-11-27T13:23:53;11.75;;;7.50;;
51124;SDS011;37163;55.556;39.108;2022-11-27T13:26:22;11.25;;;7.35;;
51124;SDS011;37163;55.556;39.108;2022-11-27T13:28:56;10.00;;;5.60;;
51124;SDS011;37163;55.556;39.108;2022-11-27T13:31:26;10.15;;;6.85;;
51124;SDS011;37163;55.556;39.108;2022-11-27T13:34:00;9.95;;;6.28;;
51124;SDS011;37163;55.556;39.108;2022-11-27T13:36:34;11.98;;;6.15;;
51124;SDS011;37163;55.556;39.108;2022-11-27T13:39:21;13.40;;;7.07;;
51124;SDS011;37163;55.556;39.108;2022-11-27T13:44:43;11.82;;;7.10;;
51124;SDS011;37163;55.556;39.108;2022-11-27T13:47:29;10.20;;;6.10;;
51124;SDS011;37163;55.556;39.108;2022-11-27T13:50:03;9.18;;;6.20;;
51124;SDS011;37163;55.556;39.108;2022-11-27T13:52:52;12.25;;;6.30;;
51124;SDS011;37163;55.556;39.108;2022-11-27T13:55:32;11.80;;;6.45;;
51124;SDS011;37163;55.556;39.108;2022-11-27T13:58:02;11.07;;;6.90;;
51124;SDS011;37163;55.556;39.108;2022-11-27T14:00:34;10.98;;;6.18;;
51124;SDS011;37163;55.556;39.108;2022-11-27T14:03:02;14.73;;;6.85;;
51124;SDS011;37163;55.556;39.108;2022-11-27T14:05:42;25.15;;;15.32;;
51124;SDS011;37163;55.556;39.108;2022-11-27T14:18:52;9.82;;;5.78;;
51124;SDS011;37163;55.556;39.108;2022-11-27T14:21:22;11.18;;;6.13;;
51124;SDS011;37163;55.556;39.108;2022-11-27T14:23:51;10.82;;;6.63;;
51124;SDS011;37163;55.556;39.108;2022-11-27T14:26:19;9.50;;;6.15;;
51124;SDS011;37163;55.556;39.108;2022-11-27T14:28:53;10.45;;;6.07;;
51124;SDS011;37163;55.556;39.108;2022-11-27T14:31:21;12.07;;;6.97;;
51124;SDS011;37163;55.556;39.108;2022-11-27T14:33:53;9.48;;;5.95;;
51124;SDS011;37163;55.556;39.108;2022-11-27T14:36:21;11.13;;;5.22;;
51124;SDS011;37163;55.556;39.108;2022-11-27T14:38:49;10.65;;;6.50;;
51124;SDS011;37163;55.556;39.108;2022-11-27T14:41:17;11.93;;;6.82;;
51124;SDS011;37163;55.556;39.108;2022-11-27T14:43:45;10.85;;;7.00;;
51124;SDS011;37163;55.556;39.108;2022-11-27T14:46:15;10.07;;;6.15;;
51124;SDS011;37163;55.556;39.108;2022-11-27T14:48:53;10.68;;;6.65;;
51124;SDS011;37163;55.556;39.108;2022-11-27T14:51:27;13.13;;;6.63;;
51124;SDS011;37163;55.556;39.108;2022-11-27T14:54:01;14.65;;;7.15;;
51124;SDS011;37163;55.556;39.108;2022-11-27T14:56:31;13.57;;;8.60;;
51124;SDS011;37163;55.556;39.108;2022-11-27T14:58:59;11.20;;;6.22;;
51124;SDS011;37163;55.556;39.108;2022-11-27T15:01:28;12.45;;;7.07;;
51124;SDS011;37163;55.556;39.108;2022-11-27T15:03:57;12.02;;;6.53;;
51124;SDS011;37163;55.556;39.108;2022-11-27T15:06:25;10.75;;;7.28;;
51124;SDS011;37163;55.556;39.108;2022-11-27T15:08:55;13.35;;;7.47;;
51124;SDS011;37163;55.556;39.108;2022-11-27T15:11:22;16.95;;;8.68;;
51124;SDS011;37163;55.556;39.108;2022-11-27T15:13:51;14.10;;;7.90;;
51124;SDS011;37163;55.556;39.108;2022-11-27T15:16:21;10.93;;;6.65;;
51124;SDS011;37163;55.556;39.108;2022-11-27T15:19:02;10.00;;;7.55;;
51124;SDS011;37163;55.556;39.108;2022-11-27T15:21:30;10.35;;;6.25;;
51124;SDS011;37163;55.556;39.108;2022-11-27T15:23:59;12.57;;;6.88;;
51124;SDS011;37163;55.556;39.108;2022-11-27T15:26:33;12.82;;;6.53;;
51124;SDS011;37163;55.556;39.108;2022-11-27T15:29:22;11.90;;;5.95;;
51124;SDS011;37163;55.556;39.108;2022-11-27T15:31:56;13.70;;;8.23;;
51124;SDS011;37163;55.556;39.108;2022-11-27T15:34:22;12.60;;;7.13;;
51124;SDS011;37163;55.556;39.108;2022-11-27T15:36:56;10.68;;;6.47;;
51124;SDS011;37163;55.556;39.108;2022-11-27T15:39:26;12.40;;;7.10;;
51124;SDS011;37163;55.556;39.108;2022-11-27T15:42:03;11.82;;;6.80;;
51124;SDS011;37163;55.556;39.108;2022-11-27T15:44:33;12.13;;;6.70;;
51124;SDS011;37163;55.556;39.108;2022-11-27T15:47:00;13.13;;;7.70;;
51124;SDS011;37163;55.556;39.108;2022-11-27T15:49:27;12.60;;;6.10;;
51124;SDS011;37163;55.556;39.108;2022-11-27T15:51:54;11.65;;;6.18;;
51124;SDS011;37163;55.556;39.108;2022-11-27T15:54:22;11.70;;;6.93;;
51124;SDS011;37163;55.556;39.108;2022-11-27T15:56:49;11.57;;;6.60;;
51124;SDS011;37163;55.556;39.108;2022-11-27T15:59:16;12.98;;;6.50;;
51124;SDS011;37163;55.556;39.108;2022-11-27T16:01:45;9.65;;;5.70;;
51124;SDS011;37163;55.556;39.108;2022-11-27T16:04:11;10.77;;;6.40;;
51124;SDS011;37163;55.556;39.108;2022-11-27T16:06:39;12.07;;;6.45;;
51124;SDS011;37163;55.556;39.108;2022-11-27T16:09:06;14.77;;;7.85;;
51124;SDS011;37163;55.556;39.108;2022-11-27T16:11:32;12.13;;;6.90;;
51124;SDS011;37163;55.556;39.108;2022-11-27T16:13:59;12.70;;;6.40;;
51124;SDS011;37163;55.556;39.108;2022-11-27T16:16:25;10.63;;;6.65;;
51124;SDS011;37163;55.556;39.108;2022-11-27T16:18:56;9.65;;;5.72;;
51124;SDS011;37163;55.556;39.108;2022-11-27T16:21:25;9.45;;;5.40;;
51124;SDS011;37163;55.556;39.108;2022-11-27T16:23:55;13.10;;;7.15;;